Time;durP1;ratioP1;P1;durP2;ratioP2;P2;SDS_P1;SDS_P2;PMS_P1;PMS_P2;Temp;Humidity;BMP_temperature;BMP_pressure;BME280_temperature;BME280_humidity;BME280_pressure;Samples;Min_cycle;Max_cycle;Signal;HPM_P1;HPM_P2
2022/06/22 00:02:01;;;;;;;6.97;4.13;;;19.00;99.90;;;;;;5056943;28;20438;-49
2022/06/22 00:04:34;;;;;;;8.37;4.13;;;19.10;99.90;;;;;;5045098;28;20469;-41
2022/06/22 00:07:05;;;;;;;5.90;3.83;;;19.10;99.90;;;;;;5047404;28;20557;-53
2022/06/22 00:09:35;;;;;;;5.27;3.00;;;19.10;99.90;;;;;;5057325;28;20528;-43
2022/06/22 00:12:04;;;;;;;5.37;3.50;;;19.10;99.90;;;;;;5056142;28;20467;-48
2022/06/22 00:14:43;;;;;;;4.50;2.63;;;19.10;99.90;;;;;;5055613;28;20556;-53
2022/06/22 00:17:20;;;;;;;3.50;3.20;;;19.10;99.90;;;;;;5056992;28;20912;-44
2022/06/22 00:19:49;;;;;;;6.20;2.57;;;19.10;99.90;;;;;;5056721;28;20468;-50
2022/06/22 00:22:19;;;;;;;4.00;2.90;;;19.00;99.90;;;;;;5056245;28;20460;-48
2022/06/22 00:24:46;;;;;;;4.17;2.50;;;19.10;99.90;;;;;;5056647;28;20456;-46
2022/06/22 00:27:22;;;;;;;2.33;2.13;;;19.10;99.90;;;;;;5046340;28;20848;-47
2022/06/22 00:30:20;;;;;;;4.40;2.43;;;19.10;99.90;;;;;;5050206;28;20432;-61
2022/06/22 00:33:02;;;;;;;4.47;2.50;;;19.10;99.90;;;;;;5056195;28;20474;-46
2022/06/22 00:36:13;;;;;;;4.47;3.23;;;19.00;99.90;;;;;;5057192;28;20436;-49
2022/06/22 00:38:40;;;;;;;6.20;2.30;;;19.00;99.90;;;;;;5027289;28;21054;-59
2022/06/22 00:41:18;;;;;;;2.70;2.40;;;18.90;99.90;;;;;;5053158;28;20441;-50
2022/06/22 00:43:48;;;;;;;4.47;2.67;;;18.90;99.90;;;;;;5054638;28;20531;-54
2022/06/22 00:46:18;;;;;;;8.10;4.67;;;18.90;99.90;;;;;;5056736;28;20559;-54
2022/06/22 00:48:48;;;;;;;3.33;2.63;;;18.90;99.90;;;;;;5055879;28;20471;-49
2022/06/22 00:51:27;;;;;;;3.00;1.70;;;18.90;99.90;;;;;;5049116;28;20479;-59
2022/06/22 00:53:58;;;;;;;5.00;3.17;;;18.90;99.90;;;;;;5050125;28;20486;-59
2022/06/22 00:56:35;;;;;;;4.83;2.70;;;18.80;99.90;;;;;;5048224;28;20528;-53
2022/06/22 00:59:08;;;;;;;2.60;2.17;;;18.80;99.90;;;;;;5053431;28;20432;-47
2022/06/22 01:01:42;;;;;;;4.50;3.03;;;18.70;99.90;;;;;;5049284;28;20480;-59
2022/06/22 01:04:18;;;;;;;3.70;2.90;;;18.60;99.90;;;;;;5052886;28;20428;-54
2022/06/22 01:06:54;;;;;;;6.00;2.73;;;18.50;99.90;;;;;;5054050;28;20511;-53
2022/06/22 01:09:29;;;;;;;7.03;3.70;;;18.40;99.90;;;;;;5038020;28;20490;-59
2022/06/22 01:12:17;;;;;;;7.47;4.00;;;18.30;99.90;;;;;;5040485;28;20471;-53
2022/06/22 01:14:50;;;;;;;6.33;3.83;;;18.20;99.90;;;;;;5013762;28;20474;-48
2022/06/22 01:17:21;;;;;;;4.07;3.00;;;18.10;99.90;;;;;;5032192;28;20739;-49
2022/06/22 01:19:55;;;;;;;3.93;2.50;;;18.10;99.90;;;;;;5036056;28;20445;-59
2022/06/22 01:22:38;;;;;;;3.90;2.60;;;18.10;99.90;;;;;;5035941;28;20433;-48
2022/06/22 01:25:24;;;;;;;6.20;4.37;;;18.10;99.90;;;;;;5029381;28;20464;-58
2022/06/22 01:27:52;;;;;;;3.23;2.93;;;18.10;99.90;;;;;;5030882;28;20469;-46
2022/06/22 01:30:25;;;;;;;4.53;3.43;;;18.20;99.90;;;;;;5029266;28;20572;-60
2022/06/22 01:32:52;;;;;;;7.13;3.10;;;18.20;99.90;;;;;;5031189;28;20532;-53
2022/06/22 01:35:23;;;;;;;5.10;2.37;;;18.30;99.90;;;;;;5035760;28;20452;-51
2022/06/22 01:37:50;;;;;;;7.83;3.03;;;18.50;99.90;;;;;;5051015;28;20430;-58
2022/06/22 01:40:21;;;;;;;4.60;3.03;;;18.50;99.90;;;;;;5051441;28;20527;-59
2022/06/22 01:42:55;;;;;;;4.43;2.60;;;18.50;99.90;;;;;;5045331;28;20448;-51
2022/06/22 01:45:30;;;;;;;2.50;2.20;;;18.50;99.90;;;;;;5036041;28;20529;-50
2022/06/22 01:48:04;;;;;;;4.47;2.97;;;18.40;99.90;;;;;;5035569;28;20488;-56
2022/06/22 01:50:36;;;;;;;3.77;3.40;;;18.40;99.90;;;;;;5033990;28;20453;-45
2022/06/22 01:53:11;;;;;;;5.43;3.47;;;18.30;99.90;;;;;;5036004;28;20481;-52
2022/06/22 01:55:44;;;;;;;4.27;2.90;;;18.20;99.90;;;;;;5051576;28;20527;-45
2022/06/22 01:58:38;;;;;;;8.00;4.37;;;18.20;99.90;;;;;;5053467;28;20527;-59
2022/06/22 02:01:13;;;;;;;5.57;2.73;;;18.10;99.90;;;;;;5055246;28;20450;-52
2022/06/22 02:03:46;;;;;;;3.80;3.37;;;18.10;99.90;;;;;;5047717;28;20455;-55
2022/06/22 02:09:11;;;;;;;4.37;2.03;;;18.10;99.90;;;;;;5054206;28;20416;-52
2022/06/22 02:11:45;;;;;;;4.40;3.60;;;18.00;99.90;;;;;;5052414;28;20475;-54
2022/06/22 02:14:20;;;;;;;5.80;3.27;;;18.00;99.90;;;;;;5055473;28;20481;-44
2022/06/22 02:16:53;;;;;;;4.50;3.20;;;18.10;99.90;;;;;;5055566;28;20458;-47
2022/06/22 02:19:22;;;;;;;4.03;2.57;;;18.00;99.90;;;;;;5054766;28;20500;-52
2022/06/22 02:21:52;;;;;;;5.10;2.83;;;17.90;99.90;;;;;;5055288;28;20432;-46
2022/06/22 02:24:31;;;;;;;2.50;2.30;;;17.90;99.90;;;;;;5055102;28;20482;-53
2022/06/22 02:27:01;;;;;;;3.63;2.70;;;17.80;99.90;;;;;;5055011;28;20468;-44
2022/06/22 02:29:36;;;;;;;2.83;2.63;;;17.80;99.90;;;;;;5055133;28;20532;-53
2022/06/22 02:32:09;;;;;;;3.00;2.47;;;17.70;99.90;;;;;;5053976;28;20435;-48
2022/06/22 02:34:39;;;;;;;3.50;3.17;;;17.60;99.90;;;;;;5055592;28;20424;-48
2022/06/22 02:37:09;;;;;;;5.23;3.30;;;17.50;99.90;;;;;;5055820;28;20508;-57
2022/06/22 02:39:46;;;;;;;3.20;2.90;;;17.50;99.90;;;;;;5058294;28;20456;-56
2022/06/22 02:45:01;;;;;;;4.33;2.87;;;17.40;99.90;;;;;;5071718;28;20434;-47
2022/06/22 02:47:32;;;;;;;4.07;3.40;;;17.30;99.90;;;;;;5071931;28;20546;-55
2022/06/22 02:50:06;;;;;;;3.33;2.20;;;17.30;99.90;;;;;;5074753;28;20485;-52
2022/06/22 02:52:38;;;;;;;4.20;3.43;;;17.20;99.90;;;;;;5074033;28;20864;-52
2022/06/22 02:55:06;;;;;;;3.57;2.43;;;17.20;99.90;;;;;;5079046;28;20554;-51
2022/06/22 02:57:46;;;;;;;4.33;2.67;;;17.10;99.90;;;;;;5077718;28;20442;-47
2022/06/22 03:00:17;;;;;;;4.50;2.80;;;17.00;99.90;;;;;;5059352;28;20409;-42
2022/06/22 03:02:44;;;;;;;3.23;2.93;;;17.00;99.90;;;;;;5058705;28;20455;-55
2022/06/22 03:05:12;;;;;;;3.57;2.57;;;16.90;99.90;;;;;;5058479;28;20440;-54
2022/06/22 03:07:44;;;;;;;5.23;2.93;;;16.90;99.90;;;;;;5055465;28;20472;-53
2022/06/22 03:10:22;;;;;;;6.90;3.30;;;16.90;99.90;;;;;;5054370;28;20519;-51
2022/06/22 03:12:50;;;;;;;4.50;3.30;;;16.90;99.90;;;;;;5057656;28;20459;-52
2022/06/22 03:15:24;;;;;;;4.40;2.70;;;16.80;99.90;;;;;;5057577;28;20440;-47
2022/06/22 03:17:52;;;;;;;5.23;2.50;;;16.80;99.90;;;;;;5057741;28;20547;-53
2022/06/22 03:20:24;;;;;;;4.30;3.50;;;16.80;99.90;;;;;;5058839;28;20547;-58
2022/06/22 03:22:54;;;;;;;4.40;2.77;;;16.70;99.90;;;;;;5058656;28;20437;-50
2022/06/22 03:25:26;;;;;;;6.73;3.30;;;16.70;99.90;;;;;;5059050;28;20440;-55
2022/06/22 03:27:56;;;;;;;4.30;2.87;;;16.70;99.90;;;;;;5058802;28;20516;-54
2022/06/22 03:30:27;;;;;;;5.67;2.70;;;16.60;99.90;;;;;;5058283;28;20436;-55
2022/06/22 03:32:59;;;;;;;5.10;3.30;;;16.60;99.90;;;;;;5058227;28;20491;-48
2022/06/22 03:35:30;;;;;;;3.10;2.80;;;16.50;99.90;;;;;;5058234;28;20439;-41
2022/06/22 03:38:02;;;;;;;4.70;3.77;;;16.50;99.90;;;;;;5058332;28;20464;-56
2022/06/22 03:40:33;;;;;;;4.90;3.20;;;16.50;99.90;;;;;;5058391;28;20528;-46
2022/06/22 03:43:07;;;;;;;4.40;2.73;;;16.50;99.90;;;;;;5068767;28;20482;-43
2022/06/22 03:45:40;;;;;;;3.30;2.83;;;16.60;99.90;;;;;;5057240;28;21034;-55
2022/06/22 03:48:12;;;;;;;8.07;3.30;;;16.60;99.90;;;;;;5057384;28;20463;-54
2022/06/22 03:50:44;;;;;;;7.07;3.67;;;16.70;99.90;;;;;;5046118;28;20466;-43
2022/06/22 03:53:14;;;;;;;4.73;2.83;;;16.70;99.90;;;;;;5057018;28;20512;-50
2022/06/22 03:55:47;;;;;;;8.33;4.00;;;16.80;99.90;;;;;;5057563;28;20432;-44
2022/06/22 03:58:16;;;;;;;6.33;3.23;;;16.80;99.90;;;;;;5053743;28;20472;-56
2022/06/22 04:00:46;;;;;;;3.27;2.90;;;16.80;99.90;;;;;;5050718;28;20468;-55
2022/06/22 04:03:16;;;;;;;5.20;3.80;;;16.90;99.90;;;;;;5058126;28;20479;-51
2022/06/22 04:05:46;;;;;;;6.53;3.70;;;16.90;99.90;;;;;;5057778;28;20861;-49
2022/06/22 04:08:22;;;;;;;5.20;3.40;;;17.00;99.90;;;;;;5057665;28;20496;-52
2022/06/22 04:10:57;;;;;;;5.63;3.07;;;17.00;99.90;;;;;;5056354;28;20468;-55
2022/06/22 04:13:32;;;;;;;4.60;3.40;;;17.10;99.90;;;;;;5056792;28;20480;-45
2022/06/22 04:16:05;;;;;;;4.57;2.87;;;17.20;99.90;;;;;;5057811;28;20443;-58
2022/06/22 04:18:37;;;;;;;4.43;3.33;;;17.30;99.90;;;;;;5048342;28;20756;-47
2022/06/22 04:21:07;;;;;;;4.33;2.77;;;17.30;99.90;;;;;;5054847;28;20480;-56
2022/06/22 04:23:39;;;;;;;3.77;2.93;;;17.30;99.90;;;;;;5054065;28;20528;-50
2022/06/22 04:26:12;;;;;;;4.63;3.50;;;17.40;99.90;;;;;;5056376;28;20472;-55
2022/06/22 04:28:46;;;;;;;5.10;3.40;;;17.40;99.90;;;;;;5056107;28;20449;-44
2022/06/22 04:31:19;;;;;;;3.40;2.77;;;17.50;99.90;;;;;;5054781;28;20492;-48
2022/06/22 04:33:49;;;;;;;5.27;3.33;;;17.40;99.90;;;;;;5056766;28;20523;-41
2022/06/22 04:36:20;;;;;;;4.13;3.00;;;17.50;99.90;;;;;;5036423;28;20453;-49
2022/06/22 04:38:52;;;;;;;5.43;2.93;;;17.50;99.90;;;;;;5027145;28;20419;-49
2022/06/22 04:41:32;;;;;;;4.97;4.30;;;17.50;99.90;;;;;;5050685;28;20439;-49
2022/06/22 04:44:02;;;;;;;3.63;3.07;;;17.60;99.90;;;;;;5055085;28;20462;-58
2022/06/22 04:46:36;;;;;;;5.87;3.40;;;17.60;99.90;;;;;;5052787;28;20432;-46
2022/06/22 04:49:09;;;;;;;7.40;3.97;;;17.60;99.90;;;;;;5055527;28;20468;-50
2022/06/22 04:51:39;;;;;;;6.33;3.87;;;17.70;99.90;;;;;;5050103;28;20475;-51
2022/06/22 04:54:13;;;;;;;5.83;3.00;;;17.80;99.90;;;;;;5054252;28;20496;-58
2022/06/22 04:56:45;;;;;;;5.37;3.20;;;17.90;99.90;;;;;;5055533;28;20436;-51
2022/06/22 04:59:14;;;;;;;4.67;3.53;;;17.90;99.90;;;;;;5054652;28;20421;-57
2022/06/22 05:01:46;;;;;;;6.67;3.80;;;17.90;99.90;;;;;;5055941;28;20476;-49
2022/06/22 05:04:17;;;;;;;5.53;3.73;;;17.90;99.90;;;;;;5056481;28;20476;-53
2022/06/22 05:06:51;;;;;;;6.27;4.10;;;18.00;99.90;;;;;;5053012;28;20495;-60
2022/06/22 05:09:26;;;;;;;5.53;3.70;;;18.00;99.90;;;;;;5052007;28;20508;-46
2022/06/22 05:11:53;;;;;;;3.73;3.20;;;18.00;99.90;;;;;;5054191;28;20436;-54
2022/06/22 05:14:23;;;;;;;5.43;2.90;;;18.10;99.90;;;;;;5050081;28;20879;-57
2022/06/22 05:16:56;;;;;;;3.87;3.50;;;18.20;99.90;;;;;;5052719;28;20443;-58
2022/06/22 05:19:27;;;;;;;7.07;3.50;;;18.30;99.90;;;;;;5053705;28;20468;-49
2022/06/22 05:21:54;;;;;;;7.40;3.47;;;18.30;99.90;;;;;;5051555;28;20432;-52
2022/06/22 05:24:25;;;;;;;5.07;3.93;;;18.40;99.90;;;;;;5033445;28;20463;-49
2022/06/22 05:26:55;;;;;;;6.07;3.20;;;18.50;99.90;;;;;;5053315;28;20470;-48
2022/06/22 05:29:28;;;;;;;5.30;3.40;;;18.60;99.90;;;;;;5047966;28;20446;-45
2022/06/22 05:32:03;;;;;;;3.60;3.30;;;18.60;99.90;;;;;;5051132;28;20468;-46
2022/06/22 05:34:34;;;;;;;7.57;4.00;;;18.70;99.90;;;;;;5055822;28;20455;-51
2022/06/22 05:37:15;;;;;;;5.40;4.90;;;18.80;99.90;;;;;;5053451;28;20476;-52
2022/06/22 05:39:43;;;;;;;9.80;3.87;;;18.90;99.90;;;;;;5047728;28;20460;-56
2022/06/22 05:42:13;;;;;;;9.93;5.00;;;19.00;99.90;;;;;;5052806;28;20546;-59
2022/06/22 05:44:40;;;;;;;4.57;3.63;;;19.10;99.90;;;;;;5048877;28;20499;-55
2022/06/22 05:47:14;;;;;;;6.80;4.87;;;19.20;99.90;;;;;;5047831;28;20502;-60
2022/06/22 05:49:47;;;;;;;6.70;4.23;;;19.30;99.90;;;;;;5049136;28;20463;-59
2022/06/22 05:52:18;;;;;;;8.13;4.93;;;19.30;99.90;;;;;;5049878;28;20503;-59
2022/06/22 05:54:53;;;;;;;9.30;4.70;;;19.40;99.90;;;;;;5046097;28;20547;-59
2022/06/22 05:57:32;;;;;;;8.57;5.03;;;19.40;99.90;;;;;;5036867;28;20538;-50
2022/06/22 06:00:04;;;;;;;6.40;4.13;;;19.50;99.90;;;;;;5048092;28;20783;-56
2022/06/22 06:02:38;;;;;;;7.57;4.70;;;19.50;99.90;;;;;;5048813;28;20508;-59
2022/06/22 06:05:14;;;;;;;8.57;4.90;;;19.60;99.90;;;;;;5046419;28;20463;-58
2022/06/22 06:07:46;;;;;;;14.37;6.63;;;19.70;99.90;;;;;;5033314;28;20477;-50
2022/06/22 06:10:20;;;;;;;12.20;7.00;;;19.70;99.90;;;;;;5025144;28;20422;-59
2022/06/22 06:13:00;;;;;;;11.93;5.47;;;19.80;99.90;;;;;;5030177;28;20445;-59
2022/06/22 06:15:29;;;;;;;5.90;3.37;;;19.90;99.90;;;;;;5041450;28;21007;-59
2022/06/22 06:17:59;;;;;;;4.30;3.57;;;20.00;99.90;;;;;;5052256;28;20444;-56
2022/06/22 06:20:32;;;;;;;6.33;3.80;;;20.10;99.90;;;;;;5052414;28;21118;-56
2022/06/22 06:23:04;;;;;;;5.00;3.60;;;20.20;99.90;;;;;;5050101;28;20434;-59
2022/06/22 06:28:28;;;;;;;4.73;3.50;;;20.30;99.90;;;;;;5046271;28;20487;-56
2022/06/22 06:31:01;;;;;;;4.23;3.50;;;20.40;99.90;;;;;;5051651;28;20451;-55
2022/06/22 06:33:34;;;;;;;4.97;3.10;;;20.50;99.90;;;;;;5055728;28;20444;-55
2022/06/22 06:36:06;;;;;;;5.00;2.90;;;20.60;99.90;;;;;;5053763;28;20428;-53
2022/06/22 06:38:41;;;;;;;5.33;4.13;;;20.70;99.90;;;;;;5046792;28;20559;-58
2022/06/22 06:41:13;;;;;;;9.73;4.23;;;20.80;99.90;;;;;;5050544;28;20424;-56
2022/06/22 06:43:44;;;;;;;20.20;14.93;;;20.90;99.90;;;;;;5050205;28;20515;-60
2022/06/22 06:46:16;;;;;;;13.53;8.30;;;21.10;99.90;;;;;;5049886;28;20475;-55
2022/06/22 06:48:48;;;;;;;5.80;4.40;;;21.20;99.90;;;;;;5050767;28;20555;-49
2022/06/22 06:51:18;;;;;;;6.00;3.93;;;21.20;99.90;;;;;;5048086;28;20436;-51
2022/06/22 06:53:49;;;;;;;7.67;3.77;;;21.30;99.90;;;;;;5051838;28;20443;-43
2022/06/22 06:56:20;;;;;;;5.70;3.40;;;21.50;99.90;;;;;;5055335;28;20475;-42
2022/06/22 06:58:52;;;;;;;3.30;2.27;;;21.60;99.90;;;;;;5056379;28;20437;-54
2022/06/22 07:01:22;;;;;;;3.47;2.27;;;21.70;99.90;;;;;;5056979;28;20488;-56
2022/06/22 07:03:57;;;;;;;2.47;2.03;;;21.90;99.90;;;;;;5054191;28;20435;-47
2022/06/22 07:06:26;;;;;;;5.20;2.40;;;22.10;99.90;;;;;;5056526;28;20462;-40
2022/06/22 07:09:00;;;;;;;4.17;2.73;;;22.30;99.70;;;;;;5054976;28;20507;-59
2022/06/22 07:11:33;;;;;;;3.80;2.90;;;22.50;99.90;;;;;;5057972;28;20475;-49
2022/06/22 07:14:07;;;;;;;4.13;2.90;;;22.80;97.60;;;;;;5059163;28;20496;-59
2022/06/22 07:16:34;;;;;;;6.17;3.97;;;23.10;96.00;;;;;;5061782;28;20475;-56
2022/06/22 07:19:07;;;;;;;6.50;3.70;;;23.40;94.80;;;;;;5056316;28;20436;-49
2022/06/22 07:21:41;;;;;;;4.90;2.43;;;24.40;93.30;;;;;;5046851;28;20463;-56
2022/06/22 07:24:13;;;;;;;231.37;197.33;;;26.20;91.30;;;;;;5052314;28;20496;-54
2022/06/22 07:26:50;;;;;;;8.10;6.27;;;28.30;81.50;;;;;;5049977;28;20450;-44
2022/06/22 07:29:24;;;;;;;5.60;2.50;;;30.40;69.20;;;;;;5055541;28;20512;-51
2022/06/22 07:31:55;;;;;;;2.73;2.20;;;32.30;59.20;;;;;;5052129;28;20436;-59
2022/06/22 07:34:30;;;;;;;3.70;2.17;;;33.90;51.90;;;;;;5055250;28;20428;-50
2022/06/22 07:37:02;;;;;;;2.60;2.00;;;35.10;47.60;;;;;;5053992;28;20428;-45
2022/06/22 07:39:34;;;;;;;4.03;2.30;;;35.70;43.90;;;;;;5056526;28;20460;-49
2022/06/22 07:42:00;;;;;;;3.93;2.20;;;36.20;42.60;;;;;;5049537;28;20436;-48
2022/06/22 07:44:31;;;;;;;3.67;2.33;;;37.00;41.40;;;;;;5055754;28;20476;-53
2022/06/22 07:47:05;;;;;;;2.43;2.23;;;37.20;39.80;;;;;;5063549;28;20479;-57
2022/06/22 07:49:40;;;;;;;4.63;2.23;;;37.30;38.40;;;;;;5074802;28;20467;-54
2022/06/22 07:52:09;;;;;;;4.10;2.77;;;37.10;38.20;;;;;;5046705;28;20484;-58
2022/06/22 07:54:43;;;;;;;3.43;2.90;;;36.90;37.40;;;;;;5027913;28;20453;-54
2022/06/22 07:57:15;;;;;;;4.53;2.90;;;36.80;37.60;;;;;;5036059;28;20452;-51
2022/06/22 07:59:47;;;;;;;4.00;2.70;;;36.70;37.40;;;;;;5052824;28;20494;-55
2022/06/22 08:02:18;;;;;;;5.37;3.10;;;37.00;36.90;;;;;;5046230;28;20472;-56
2022/06/22 08:04:52;;;;;;;3.17;2.67;;;37.00;36.70;;;;;;5041146;28;20528;-58
2022/06/22 08:07:24;;;;;;;3.57;1.50;;;37.00;36.70;;;;;;5052890;28;20452;-56
2022/06/22 08:10:01;;;;;;;2.30;1.90;;;37.20;35.70;;;;;;5043079;28;20545;-54
2022/06/22 08:12:34;;;;;;;8.00;3.23;;;37.10;35.50;;;;;;5053627;28;20439;-54
2022/06/22 08:15:07;;;;;;;2.70;2.03;;;37.20;35.80;;;;;;5054879;28;20528;-54
2022/06/22 08:17:43;;;;;;;3.30;2.43;;;37.40;35.60;;;;;;5054465;28;20436;-45
2022/06/22 08:20:15;;;;;;;3.67;2.23;;;37.10;35.50;;;;;;5052659;28;20428;-54
2022/06/22 08:22:44;;;;;;;3.00;2.23;;;36.90;35.30;;;;;;5042587;28;20451;-58
2022/06/22 08:25:13;;;;;;;4.57;2.50;;;36.70;36.20;;;;;;5054607;28;20444;-50
2022/06/22 08:27:40;;;;;;;3.50;2.33;;;36.60;35.50;;;;;;5044434;28;20459;-61
2022/06/22 08:30:09;;;;;;;2.33;2.13;;;36.20;35.50;;;;;;5062697;28;20459;-53
2022/06/22 08:32:41;;;;;;;3.50;2.20;;;36.00;35.40;;;;;;5066949;28;20954;-53
2022/06/22 08:35:15;;;;;;;4.23;3.83;;;35.90;35.70;;;;;;5051465;28;20447;-55
2022/06/22 08:37:48;;;;;;;3.30;2.20;;;36.10;35.80;;;;;;5035983;28;20471;-60
2022/06/22 08:40:29;;;;;;;4.07;2.13;;;36.20;36.70;;;;;;5049020;28;20531;-57
2022/06/22 08:43:04;;;;;;;4.33;2.60;;;36.40;36.20;;;;;;5045512;28;20440;-55
2022/06/22 08:46:12;;;;;;;2.87;1.90;;;36.50;36.20;;;;;;5029684;28;20500;-57
2022/06/22 08:49:02;;;;;;;2.10;1.83;;;36.50;35.40;;;;;;5051564;28;20481;-57
2022/06/22 08:52:01;;;;;;;2.40;2.10;;;36.50;36.40;;;;;;5055106;28;20488;-54
2022/06/22 08:54:45;;;;;;;5.10;2.70;;;36.80;37.20;;;;;;5052467;28;20547;-55
2022/06/22 08:57:19;;;;;;;2.73;2.00;;;37.00;35.80;;;;;;5050702;28;20427;-52
2022/06/22 09:00:03;;;;;;;2.60;2.00;;;37.30;35.10;;;;;;5049958;28;20495;-57
2022/06/22 09:02:59;;;;;;;3.83;2.03;;;37.10;34.40;;;;;;5051241;28;20478;-55
2022/06/22 09:05:49;;;;;;;2.37;2.17;;;37.00;34.60;;;;;;5011343;28;20456;-58
2022/06/22 09:08:42;;;;;;;3.03;2.07;;;37.00;35.70;;;;;;5047165;28;20551;-58
2022/06/22 09:11:20;;;;;;;2.20;1.90;;;36.90;35.30;;;;;;5047941;28;20540;-57
2022/06/22 09:14:08;;;;;;;3.10;2.27;;;36.90;34.60;;;;;;5051698;28;20512;-55
2022/06/22 09:16:48;;;;;;;3.50;1.90;;;36.80;35.10;;;;;;5050192;28;20454;-56
2022/06/22 09:19:33;;;;;;;195.07;175.10;;;36.80;34.90;;;;;;5050397;28;20436;-60
2022/06/22 09:22:08;;;;;;;4.40;2.90;;;37.00;35.00;;;;;;5051295;28;20498;-59
2022/06/22 09:24:42;;;;;;;3.17;2.13;;;37.10;33.90;;;;;;5055982;28;20449;-59
2022/06/22 09:27:17;;;;;;;2.90;2.20;;;37.10;34.50;;;;;;5068511;28;20499;-56
2022/06/22 09:30:05;;;;;;;6.30;2.00;;;36.90;34.00;;;;;;5047691;28;20531;-53
2022/06/22 09:33:13;;;;;;;3.83;1.70;;;36.90;33.00;;;;;;5050214;28;20479;-57
2022/06/22 09:36:05;;;;;;;5.17;2.50;;;36.80;32.50;;;;;;4958838;28;20474;-54
2022/06/22 09:38:52;;;;;;;2.40;1.63;;;36.80;33.20;;;;;;5048566;28;20877;-53
2022/06/22 09:41:32;;;;;;;2.10;1.67;;;36.80;32.90;;;;;;5046995;28;20455;-56
2022/06/22 09:44:26;;;;;;;2.77;1.57;;;36.70;33.60;;;;;;5047999;28;20463;-55
2022/06/22 09:47:25;;;;;;;5.97;2.17;;;36.40;34.20;;;;;;5047323;28;20459;-61
2022/06/22 09:50:35;;;;;;;4.50;3.77;;;36.60;34.30;;;;;;5045240;28;20515;-55
2022/06/22 09:53:34;;;;;;;2.50;2.30;;;36.60;34.00;;;;;;5009123;28;20456;-61
2022/06/22 09:56:22;;;;;;;1.93;1.73;;;36.80;34.00;;;;;;5027364;28;20453;-51
2022/06/22 09:59:22;;;;;;;2.60;2.40;;;36.60;34.10;;;;;;5050646;28;20417;-56
2022/06/22 10:01:59;;;;;;;2.70;2.33;;;36.30;34.90;;;;;;5033500;28;21793;-60
2022/06/22 10:05:13;;;;;;;3.20;2.90;;;36.40;34.70;;;;;;5035461;28;20444;-57
2022/06/22 10:08:00;;;;;;;2.83;2.53;;;36.00;34.00;;;;;;4965519;29;20448;-51
2022/06/22 10:10:38;;;;;;;3.03;2.70;;;35.60;33.50;;;;;;5047576;28;21001;-57
2022/06/22 10:13:29;;;;;;;2.60;1.70;;;35.30;34.50;;;;;;5048198;28;20691;-60
2022/06/22 10:16:16;;;;;;;5.20;2.03;;;35.20;34.50;;;;;;5045475;28;20448;-59
2022/06/22 10:18:58;;;;;;;3.07;2.43;;;35.20;34.30;;;;;;5046815;28;20444;-62
2022/06/22 10:21:39;;;;;;;3.03;2.53;;;34.70;34.20;;;;;;5041845;28;20469;-57
2022/06/22 10:24:26;;;;;;;4.77;2.30;;;34.50;35.20;;;;;;5041411;28;20463;-56
2022/06/22 10:27:22;;;;;;;2.53;2.00;;;34.20;35.80;;;;;;5045511;28;20468;-55
2022/06/22 10:30:11;;;;;;;1.80;1.53;;;34.30;35.30;;;;;;5035454;28;20460;-58
2022/06/22 10:32:59;;;;;;;2.27;1.80;;;34.10;36.10;;;;;;5046524;28;20498;-59
2022/06/22 10:35:49;;;;;;;2.73;2.20;;;33.80;35.70;;;;;;5044755;28;20428;-57
2022/06/22 10:38:35;;;;;;;3.20;2.00;;;33.50;36.90;;;;;;5047853;28;20428;-62
2022/06/22 10:47:25;;;;;;;3.93;1.70;;;33.30;35.40;;;;;;5047119;28;20446;-56
2022/06/22 10:50:11;;;;;;;3.20;1.50;;;32.80;37.20;;;;;;5047382;28;20478;-59
2022/06/22 10:53:06;;;;;;;6.33;2.30;;;32.50;37.30;;;;;;5041905;28;20516;-53
2022/06/22 10:55:49;;;;;;;3.60;2.07;;;32.40;37.40;;;;;;5052096;28;20475;-59
2022/06/22 10:58:44;;;;;;;3.53;2.07;;;32.30;38.40;;;;;;5052014;28;20448;-59
2022/06/22 11:01:40;;;;;;;6.50;2.07;;;32.30;37.90;;;;;;5050690;28;20513;-56
2022/06/22 11:04:51;;;;;;;2.90;2.00;;;32.10;37.50;;;;;;5051684;28;20503;-60
2022/06/22 11:07:40;;;;;;;4.10;2.00;;;32.20;37.70;;;;;;5050476;28;20480;-61
2022/06/22 11:10:22;;;;;;;5.23;2.00;;;32.10;38.20;;;;;;5056311;28;20509;-54
2022/06/22 11:13:21;;;;;;;2.50;1.70;;;32.00;38.40;;;;;;5046108;28;20475;-54
2022/06/22 11:16:24;;;;;;;6.60;2.40;;;31.90;38.20;;;;;;5044214;28;20537;-59
2022/06/22 11:19:22;;;;;;;2.33;1.80;;;31.90;39.00;;;;;;5026512;28;20425;-53
2022/06/22 11:22:05;;;;;;;5.47;3.30;;;31.70;38.40;;;;;;5045782;28;20525;-61
2022/06/22 11:25:17;;;;;;;5.70;1.90;;;31.70;39.00;;;;;;5036597;28;20541;-57
2022/06/22 11:30:53;;;;;;;2.77;1.77;;;31.70;38.70;;;;;;5015499;28;20511;-60
2022/06/22 11:33:59;;;;;;;2.87;2.10;;;31.40;37.80;;;;;;5052731;28;20712;-51
2022/06/22 11:36:39;;;;;;;2.93;2.10;;;31.40;38.20;;;;;;5055636;28;20440;-51
2022/06/22 11:39:30;;;;;;;2.60;2.40;;;31.40;39.70;;;;;;5053666;28;20436;-56
2022/06/22 11:42:20;;;;;;;4.17;1.73;;;31.40;38.60;;;;;;5044987;28;20472;-59
2022/06/22 11:48:20;;;;;;;1.90;1.80;;;31.00;38.20;;;;;;5054847;28;20520;-53
2022/06/22 11:51:03;;;;;;;2.43;2.07;;;30.90;36.60;;;;;;5046735;28;20482;-42
2022/06/22 11:53:46;;;;;;;2.53;1.90;;;30.80;37.00;;;;;;5037963;28;20532;-48
2022/06/22 11:56:28;;;;;;;2.40;1.90;;;30.80;37.30;;;;;;5054083;28;20442;-57
2022/06/22 11:59:17;;;;;;;2.97;2.10;;;30.60;36.10;;;;;;5038967;28;20467;-48
2022/06/22 12:01:58;;;;;;;3.90;2.40;;;30.50;36.10;;;;;;5045997;28;20437;-48
2022/06/22 12:04:55;;;;;;;3.90;2.70;;;30.40;37.20;;;;;;5047324;28;20432;-59
2022/06/22 12:07:49;;;;;;;2.33;1.93;;;30.20;36.90;;;;;;5035220;28;20466;-59
2022/06/22 12:10:33;;;;;;;2.23;1.57;;;30.10;37.50;;;;;;5043730;28;20500;-48
2022/06/22 12:13:24;;;;;;;2.97;1.90;;;30.10;37.00;;;;;;5050636;28;20433;-53
2022/06/22 12:16:06;;;;;;;3.17;1.80;;;30.10;37.90;;;;;;5034221;28;20413;-41
2022/06/22 12:18:51;;;;;;;2.17;1.97;;;29.90;38.30;;;;;;5046101;28;20455;-57
2022/06/22 12:21:40;;;;;;;2.20;1.77;;;29.70;38.70;;;;;;5043282;28;20454;-56
2022/06/22 12:24:15;;;;;;;3.70;3.20;;;29.80;38.40;;;;;;5050662;28;20496;-54
2022/06/22 12:26:53;;;;;;;4.10;2.37;;;30.00;39.00;;;;;;5042175;28;20459;-58
2022/06/22 12:29:56;;;;;;;3.93;2.00;;;30.00;39.90;;;;;;5029306;28;20567;-57
2022/06/22 12:32:29;;;;;;;4.13;1.77;;;30.00;38.30;;;;;;5040023;28;20444;-57
2022/06/22 12:35:05;;;;;;;3.43;2.17;;;29.90;37.80;;;;;;5043383;28;20471;-51
2022/06/22 12:37:36;;;;;;;2.50;2.07;;;29.80;38.60;;;;;;5030127;28;20860;-47
2022/06/22 12:40:10;;;;;;;8.40;1.90;;;29.80;38.20;;;;;;5048001;28;20462;-52
2022/06/22 12:42:54;;;;;;;2.20;2.00;;;29.80;38.90;;;;;;5052989;28;20474;-50
2022/06/22 12:45:47;;;;;;;2.90;1.53;;;29.80;38.40;;;;;;5044836;28;20451;-53
2022/06/22 12:49:02;;;;;;;2.60;1.70;;;29.70;37.10;;;;;;5040109;28;20468;-49
2022/06/22 12:51:34;;;;;;;1.83;1.30;;;29.60;36.80;;;;;;5053703;28;20448;-55
2022/06/22 12:54:07;;;;;;;3.40;2.03;;;29.50;37.10;;;;;;5051544;28;20471;-56
2022/06/22 12:56:41;;;;;;;3.40;2.13;;;29.50;37.10;;;;;;5053528;28;20435;-59
2022/06/22 12:59:13;;;;;;;4.43;1.97;;;29.40;37.80;;;;;;5055907;28;20423;-52
2022/06/22 13:01:43;;;;;;;2.60;1.73;;;29.50;36.10;;;;;;5048011;28;20527;-58
2022/06/22 13:04:19;;;;;;;2.93;1.53;;;29.50;36.00;;;;;;5051206;28;20587;-59
2022/06/22 13:06:52;;;;;;;2.67;2.33;;;29.60;37.50;;;;;;5044263;28;20468;-53
2022/06/22 13:09:19;;;;;;;4.60;2.37;;;29.70;37.90;;;;;;5048731;28;20490;-58
2022/06/22 13:11:48;;;;;;;1.87;1.63;;;29.60;36.90;;;;;;5043318;28;20469;-59
2022/06/22 13:14:31;;;;;;;2.10;1.90;;;29.50;37.50;;;;;;5051460;28;20460;-53
2022/06/22 13:17:09;;;;;;;2.00;1.40;;;29.50;36.60;;;;;;5053660;28;20433;-52
2022/06/22 13:19:52;;;;;;;3.20;2.00;;;29.50;36.90;;;;;;5048323;28;20433;-55
2022/06/22 13:22:32;;;;;;;4.83;1.73;;;29.40;37.90;;;;;;5046973;28;20443;-52
2022/06/22 13:25:07;;;;;;;3.20;1.60;;;29.50;38.40;;;;;;5049152;28;20460;-49
2022/06/22 13:27:42;;;;;;;4.87;2.67;;;29.60;39.00;;;;;;5052055;28;20445;-54
2022/06/22 13:30:17;;;;;;;2.17;1.83;;;29.80;38.90;;;;;;5052087;28;20511;-54
2022/06/22 13:32:52;;;;;;;2.40;2.20;;;29.80;36.70;;;;;;5048554;28;20471;-56
2022/06/22 13:35:26;;;;;;;2.00;1.40;;;29.80;36.90;;;;;;5054454;28;20474;-52
2022/06/22 13:38:06;;;;;;;3.37;2.00;;;29.80;35.10;;;;;;5053544;28;20458;-44
2022/06/22 13:40:43;;;;;;;3.80;2.00;;;29.80;34.80;;;;;;5052144;28;20428;-54
2022/06/22 13:43:31;;;;;;;4.03;3.53;;;29.80;35.10;;;;;;5053490;28;20464;-57
2022/06/22 13:46:18;;;;;;;2.70;1.40;;;29.70;35.50;;;;;;5052563;28;20465;-53
2022/06/22 13:48:53;;;;;;;4.83;1.43;;;29.70;34.90;;;;;;5052760;28;20479;-46
2022/06/22 13:51:53;;;;;;;3.30;1.80;;;29.70;35.30;;;;;;5052607;28;20470;-52
2022/06/22 13:55:02;;;;;;;2.30;1.80;;;29.70;36.00;;;;;;5053871;28;20429;-52
2022/06/22 13:57:41;;;;;;;4.60;1.90;;;29.70;37.50;;;;;;5034081;28;20433;-58
2022/06/22 14:00:13;;;;;;;1.70;1.60;;;29.70;37.20;;;;;;5053465;28;20431;-49